X  CloseMetar Aviation Weather Data     NZCH Christchurch International

Temperature

3°C Temperature

2°C Dewpoint

93% Humidity



Wind

 2 KM/H

 1 MPH

 0 M/S

 1 KTS



210°
South South
West
Current Conditions

Clear Clear
Pressure 986.92 (hPa) - 29.14 (in)
Visibility 6.2 (mi) - 10 (km)
Airport
Airport-code NZCH

Location Christchurch International 14 (km)

Metar:
NZCH 221630Z AUTO 21001KT 9999 NCD 03/02 Q0987 NOSIG

Time: 23-08-2019 04:30